createdAt,value
2022-08-25T00:01:49.877Z,21.35
2022-08-25T00:04:18.187Z,21.31
2022-08-25T00:06:46.173Z,21.33
2022-08-25T00:09:16.297Z,21.26
2022-08-25T00:11:43.472Z,21.20
2022-08-25T00:14:14.628Z,21.22
2022-08-25T00:16:41.230Z,21.10
2022-08-25T00:19:12.245Z,21.24
2022-08-25T00:21:40.275Z,21.19
2022-08-25T00:24:08.900Z,21.03
2022-08-25T00:26:39.726Z,21.01
2022-08-25T00:29:06.834Z,20.96
2022-08-25T00:31:38.713Z,20.73
2022-08-25T00:34:09.569Z,20.74
2022-08-25T00:36:36.820Z,20.71
2022-08-25T00:39:04.642Z,20.75
2022-08-25T00:41:31.420Z,20.66
2022-08-25T00:44:01.269Z,20.67
2022-08-25T00:46:31.622Z,20.67
2022-08-25T00:49:05.726Z,20.57
2022-08-25T00:51:50.842Z,20.51
2022-08-25T00:54:24.615Z,20.58
2022-08-25T00:56:51.985Z,20.49
2022-08-25T00:59:21.220Z,20.48
2022-08-25T01:01:48.033Z,20.49
2022-08-25T01:04:14.860Z,20.50
2022-08-25T01:06:44.420Z,20.30
2022-08-25T01:09:13.968Z,20.35
2022-08-25T01:11:44.801Z,20.41
2022-08-25T01:14:15.896Z,20.38
2022-08-25T01:16:43.682Z,20.24
2022-08-25T01:19:15.151Z,20.19
2022-08-25T01:21:48.366Z,20.20
2022-08-25T01:24:29.393Z,20.27
2022-08-25T01:26:55.817Z,20.28
2022-08-25T01:29:22.457Z,20.13
2022-08-25T01:31:51.008Z,20.01
2022-08-25T01:34:19.475Z,20.05
2022-08-25T01:36:46.113Z,20.05
2022-08-25T01:39:13.451Z,20.06
2022-08-25T01:41:58.351Z,19.94
2022-08-25T01:44:25.837Z,19.85
2022-08-25T01:46:52.953Z,19.82
2022-08-25T01:49:19.350Z,19.83
2022-08-25T01:51:53.403Z,19.77
2022-08-25T01:54:20.260Z,19.71
2022-08-25T01:56:47.077Z,19.72
2022-08-25T01:59:18.926Z,19.64
2022-08-25T02:01:50.685Z,19.62
2022-08-25T02:04:17.196Z,19.67
2022-08-25T02:07:22.293Z,19.60
2022-08-25T02:09:49.234Z,19.52
2022-08-25T02:12:15.685Z,19.51
2022-08-25T02:14:42.123Z,19.50
2022-08-25T02:17:09.738Z,19.50
2022-08-25T02:19:36.121Z,19.42
2022-08-25T02:22:02.601Z,19.34
2022-08-25T02:24:29.074Z,19.24
2022-08-25T02:26:55.646Z,19.25
2022-08-25T02:29:22.089Z,19.25
2022-08-25T02:31:48.632Z,19.33
2022-08-25T02:34:15.994Z,19.33
2022-08-25T02:36:43.697Z,19.25
2022-08-25T02:39:11.708Z,19.29
2022-08-25T02:41:39.052Z,19.27
2022-08-25T02:44:07.943Z,19.34
2022-08-25T02:46:35.218Z,19.19
2022-08-25T02:49:01.740Z,19.29
2022-08-25T02:51:29.998Z,19.04
2022-08-25T02:53:58.583Z,19.12
2022-08-25T02:56:25.792Z,19.11
2022-08-25T02:58:52.269Z,19.03
2022-08-25T03:01:18.770Z,19.12
2022-08-25T03:03:46.192Z,19.16
2022-08-25T03:06:17.345Z,19.11
2022-08-25T03:08:44.562Z,18.99
2022-08-25T03:11:11.665Z,18.98
2022-08-25T03:13:38.255Z,19.01
2022-08-25T03:16:10.977Z,18.96
2022-08-25T03:18:39.418Z,18.84
2022-08-25T03:21:06.997Z,18.94
2022-08-25T03:23:33.386Z,18.90
2022-08-25T03:26:18.447Z,18.91
2022-08-25T03:28:44.901Z,18.88
2022-08-25T03:31:11.332Z,18.76
2022-08-25T03:33:38.336Z,18.68
2022-08-25T03:36:06.318Z,18.60
2022-08-25T03:38:32.951Z,18.69
2022-08-25T03:40:59.440Z,18.68
2022-08-25T03:43:25.852Z,18.66
2022-08-25T03:45:52.446Z,18.48
2022-08-25T03:48:18.879Z,18.48
2022-08-25T03:50:51.545Z,18.53
2022-08-25T03:53:19.992Z,18.49
2022-08-25T03:55:46.899Z,18.46
2022-08-25T03:58:13.950Z,18.29
2022-08-25T04:00:40.625Z,18.33
2022-08-25T04:03:07.172Z,18.40
2022-08-25T04:05:33.813Z,18.46
2022-08-25T04:08:01.797Z,18.38
2022-08-25T04:10:29.282Z,18.33
2022-08-25T04:12:56.055Z,18.34
2022-08-25T04:15:23.922Z,18.27
2022-08-25T04:17:58.701Z,18.43
2022-08-25T04:20:25.134Z,18.30
2022-08-25T04:22:51.606Z,18.25
2022-08-25T04:25:18.057Z,18.14
2022-08-25T04:27:44.463Z,18.12
2022-08-25T04:30:11.453Z,18.03
2022-08-25T04:32:37.898Z,17.97
2022-08-25T04:35:05.209Z,17.94
2022-08-25T04:37:33.271Z,18.01
2022-08-25T04:39:59.806Z,17.97
2022-08-25T04:42:27.022Z,17.94
2022-08-25T04:44:54.323Z,17.87
2022-08-25T04:47:20.776Z,18.05
2022-08-25T04:49:47.305Z,18.12
2022-08-25T04:52:14.525Z,18.13
2022-08-25T04:54:41.632Z,18.18
2022-08-25T04:57:08.051Z,18.14
2022-08-25T04:59:34.445Z,17.95
2022-08-25T05:02:02.995Z,17.96
2022-08-25T05:04:31.204Z,18.01
2022-08-25T05:06:58.522Z,17.93
2022-08-25T05:09:25.742Z,17.99
2022-08-25T05:11:53.022Z,17.93
2022-08-25T05:14:25.642Z,17.95
2022-08-25T05:17:19.066Z,18.01
2022-08-25T05:19:45.573Z,18.00
2022-08-25T05:22:12.279Z,17.98
2022-08-25T05:24:38.681Z,18.05
2022-08-25T05:27:05.474Z,18.19
2022-08-25T05:29:31.877Z,18.20
2022-08-25T05:31:58.297Z,18.19
2022-08-25T05:34:25.654Z,18.21
2022-08-25T05:36:52.125Z,18.22
2022-08-25T05:39:18.706Z,18.30
2022-08-25T05:41:45.137Z,18.36
2022-08-25T05:44:12.728Z,18.42
2022-08-25T05:46:39.158Z,18.44
2022-08-25T05:49:05.654Z,18.52
2022-08-25T05:51:32.052Z,18.53
2022-08-25T05:53:58.514Z,18.50
2022-08-25T05:56:24.929Z,18.53
2022-08-25T05:58:51.378Z,18.59
2022-08-25T06:01:45.569Z,18.66
2022-08-25T06:04:13.330Z,18.74
2022-08-25T06:06:40.619Z,18.81
2022-08-25T06:09:09.343Z,18.79
2022-08-25T06:11:37.918Z,18.83
2022-08-25T06:14:04.683Z,18.84
2022-08-25T06:16:31.521Z,18.79
2022-08-25T06:18:58.034Z,19.01
2022-08-25T06:21:25.222Z,19.09
2022-08-25T06:23:51.606Z,19.15
2022-08-25T06:26:21.039Z,19.20
2022-08-25T06:28:48.129Z,19.25
2022-08-25T06:31:14.722Z,19.32
2022-08-25T06:33:41.181Z,19.42
2022-08-25T06:36:08.603Z,19.44
2022-08-25T06:38:35.386Z,19.50
2022-08-25T06:41:04.252Z,19.64
2022-08-25T06:43:31.125Z,19.72
2022-08-25T06:45:57.489Z,19.83
2022-08-25T06:48:23.952Z,19.94
2022-08-25T06:50:50.530Z,20.01
2022-08-25T06:53:16.966Z,20.11
2022-08-25T06:55:43.342Z,20.21
2022-08-25T06:58:11.105Z,20.33
2022-08-25T07:00:38.161Z,20.41
2022-08-25T07:03:04.967Z,20.49
2022-08-25T07:05:42.937Z,20.59
2022-08-25T07:08:11.782Z,20.68
2022-08-25T07:10:38.771Z,20.75
2022-08-25T07:13:05.266Z,20.84
2022-08-25T07:15:31.667Z,20.92
2022-08-25T07:17:58.240Z,21.00
2022-08-25T07:22:57.935Z,21.17
2022-08-25T07:25:24.426Z,21.20
2022-08-25T07:27:50.901Z,21.26
2022-08-25T07:30:17.691Z,21.35
2022-08-25T07:32:44.138Z,21.43
2022-08-25T07:35:18.817Z,21.53
2022-08-25T07:37:50.622Z,21.62
2022-08-25T07:40:23.271Z,21.71
2022-08-25T07:42:52.223Z,21.80
2022-08-25T07:45:20.699Z,21.91
2022-08-25T07:47:47.895Z,22.01
2022-08-25T07:50:14.662Z,22.03
2022-08-25T07:52:41.419Z,22.12
2022-08-25T07:55:08.487Z,22.19
2022-08-25T07:57:40.274Z,22.29
2022-08-25T08:00:08.279Z,22.41
2022-08-25T08:02:39.663Z,22.52
2022-08-25T08:05:09.687Z,22.60
2022-08-25T08:07:43.520Z,22.68
2022-08-25T08:10:42.403Z,22.79
2022-08-25T08:12:59.260Z,22.92
2022-08-25T08:15:25.914Z,23.02
2022-08-25T08:17:56.175Z,23.11
2022-08-25T08:20:24.642Z,23.22
2022-08-25T08:22:51.096Z,23.32
2022-08-25T08:25:21.348Z,23.45
2022-08-25T08:27:54.822Z,23.52
2022-08-25T08:30:22.242Z,23.61
2022-08-25T08:33:09.133Z,23.69
2022-08-25T08:35:36.906Z,23.88
2022-08-25T08:38:05.448Z,23.95
2022-08-25T08:41:07.751Z,24.03
2022-08-25T08:43:35.262Z,24.14
2022-08-25T08:46:03.899Z,24.26
2022-08-25T08:48:47.411Z,24.43
2022-08-25T08:51:25.118Z,24.61
2022-08-25T08:54:00.948Z,24.68
2022-08-25T08:56:45.258Z,24.81
2022-08-25T08:59:22.144Z,24.98
2022-08-25T09:02:00.435Z,25.10
2022-08-25T09:04:37.367Z,25.15
2022-08-25T09:07:10.938Z,25.12
2022-08-25T09:09:40.920Z,25.23
2022-08-25T09:12:17.132Z,25.33
2022-08-25T09:15:01.499Z,25.42
2022-08-25T09:18:05.991Z,25.47
2022-08-25T09:20:54.893Z,25.55
2022-08-25T09:23:36.266Z,25.64
2022-08-25T09:26:36.302Z,25.77
2022-08-25T09:29:14.684Z,25.81
2022-08-25T09:31:43.553Z,25.88
2022-08-25T09:34:21.211Z,26.02
2022-08-25T09:36:50.681Z,26.07
2022-08-25T09:39:17.947Z,26.21
2022-08-25T09:41:51.971Z,26.28
2022-08-25T09:44:26.028Z,26.44
2022-08-25T09:47:15.374Z,26.58
2022-08-25T09:50:06.847Z,26.84
2022-08-25T09:52:38.606Z,26.84
2022-08-25T09:55:08.150Z,26.85
2022-08-25T09:57:44.874Z,26.91
2022-08-25T10:00:22.395Z,27.08
2022-08-25T10:03:17.967Z,27.16
2022-08-25T10:05:56.369Z,27.28
2022-08-25T10:08:56.128Z,27.37
2022-08-25T10:11:37.913Z,27.48
2022-08-25T10:14:15.021Z,27.63
2022-08-25T10:16:41.622Z,27.60
2022-08-25T10:19:27.899Z,27.55
2022-08-25T10:22:08.689Z,27.60
2022-08-25T10:24:38.526Z,27.68
2022-08-25T10:27:23.355Z,27.81
2022-08-25T10:30:02.902Z,27.95
2022-08-25T10:33:03.727Z,28.09
2022-08-25T10:36:02.616Z,28.16
2022-08-25T10:38:43.066Z,28.30
2022-08-25T10:41:53.479Z,28.39
2022-08-25T10:45:16.215Z,28.21
2022-08-25T10:48:06.419Z,28.43
2022-08-25T10:50:51.190Z,28.62
2022-08-25T10:53:27.869Z,28.44
2022-08-25T10:56:14.999Z,28.56
2022-08-25T10:58:56.022Z,28.64
2022-08-25T11:01:47.113Z,28.35
2022-08-25T11:04:26.206Z,28.02
2022-08-25T11:07:26.810Z,27.81
2022-08-25T11:10:00.251Z,27.79
2022-08-25T11:12:38.553Z,27.61
2022-08-25T11:15:20.900Z,27.41
2022-08-25T11:18:15.005Z,27.21
2022-08-25T11:20:59.825Z,27.05
2022-08-25T11:23:42.085Z,26.92
2022-08-25T11:26:28.918Z,26.80
2022-08-25T11:29:14.228Z,26.79
2022-08-25T11:31:49.599Z,27.20
2022-08-25T11:34:20.422Z,27.77
2022-08-25T11:36:55.079Z,28.29
2022-08-25T11:39:42.622Z,28.70
2022-08-25T11:42:29.991Z,28.93
2022-08-25T11:45:36.085Z,29.20
2022-08-25T11:48:10.973Z,29.34
2022-08-25T11:50:57.809Z,29.17
2022-08-25T11:53:42.095Z,28.77
2022-08-25T11:56:31.985Z,28.29
2022-08-25T11:58:59.475Z,28.02
2022-08-25T12:01:32.603Z,27.80
2022-08-25T12:04:15.100Z,27.59
2022-08-25T12:07:06.893Z,27.46
2022-08-25T12:09:54.875Z,27.31
2022-08-25T12:12:56.538Z,27.23
2022-08-25T12:15:42.823Z,27.47
2022-08-25T12:18:16.431Z,27.97
2022-08-25T12:20:57.401Z,28.43
2022-08-25T12:23:46.399Z,28.80
2022-08-25T12:26:38.260Z,29.05
2022-08-25T12:29:24.301Z,29.06
2022-08-25T12:31:56.861Z,28.71
2022-08-25T12:34:46.961Z,28.34
2022-08-25T12:37:19.666Z,28.17
2022-08-25T12:39:50.204Z,28.28
2022-08-25T12:42:29.712Z,28.21
2022-08-25T12:45:11.168Z,28.06
2022-08-25T12:47:38.424Z,28.07
2022-08-25T12:50:40.868Z,28.19
2022-08-25T12:53:12.524Z,28.04
2022-08-25T12:55:46.340Z,27.87
2022-08-25T12:58:12.920Z,27.77
2022-08-25T13:01:01.622Z,27.71
2022-08-25T13:03:54.579Z,27.60
2022-08-25T13:06:50.848Z,27.67
2022-08-25T13:09:42.252Z,27.77
2022-08-25T13:12:17.385Z,27.80
2022-08-25T13:14:45.790Z,27.93
2022-08-25T13:17:24.376Z,27.84
2022-08-25T13:19:50.915Z,27.73
2022-08-25T13:22:19.576Z,27.62
2022-08-25T13:24:50.796Z,27.58
2022-08-25T13:27:27.857Z,27.56
2022-08-25T13:29:59.723Z,27.56
2022-08-25T13:32:36.003Z,27.53
2022-08-25T13:35:34.617Z,27.77
2022-08-25T13:38:19.223Z,27.69
2022-08-25T13:40:45.654Z,27.62
2022-08-25T13:43:15.024Z,27.54
2022-08-25T13:45:47.788Z,27.45
2022-08-25T13:48:36.149Z,27.52
2022-08-25T13:51:18.953Z,27.63
2022-08-25T13:53:50.862Z,27.78
2022-08-25T13:56:31.147Z,27.99
2022-08-25T13:59:01.772Z,28.09
2022-08-25T14:01:48.100Z,28.20
2022-08-25T14:04:24.136Z,28.25
2022-08-25T14:07:20.172Z,28.33
2022-08-25T14:09:53.567Z,28.31
2022-08-25T14:12:47.910Z,28.36
2022-08-25T14:15:22.135Z,28.29
2022-08-25T14:18:01.811Z,28.30
2022-08-25T14:20:31.672Z,28.24
2022-08-25T14:23:12.804Z,28.15
2022-08-25T14:25:45.743Z,28.03
2022-08-25T14:28:15.749Z,27.93
2022-08-25T14:30:51.816Z,27.84
2022-08-25T14:33:21.268Z,27.77
2022-08-25T14:35:49.730Z,27.72
2022-08-25T14:38:18.749Z,27.67
2022-08-25T14:40:48.010Z,27.64
2022-08-25T14:43:15.360Z,27.61
2022-08-25T14:45:44.151Z,27.59
2022-08-25T14:48:19.944Z,27.56
2022-08-25T14:50:46.521Z,27.52
2022-08-25T14:53:13.207Z,27.50
2022-08-25T14:55:39.908Z,27.53
2022-08-25T14:58:07.066Z,27.54
2022-08-25T15:00:40.450Z,27.54
2022-08-25T15:03:07.531Z,27.50
2022-08-25T15:05:34.291Z,27.56
2022-08-25T15:08:19.532Z,27.57
2022-08-25T15:10:47.306Z,27.54
2022-08-25T15:13:14.994Z,27.52
2022-08-25T15:15:52.509Z,27.51
2022-08-25T15:18:21.046Z,27.52
2022-08-25T15:20:50.051Z,27.47
2022-08-25T15:23:18.356Z,27.41
2022-08-25T15:25:47.243Z,27.43
2022-08-25T15:28:17.396Z,27.43
2022-08-25T15:30:45.178Z,27.39
2022-08-25T15:33:13.190Z,27.42
2022-08-25T15:35:40.429Z,27.40
2022-08-25T15:38:08.028Z,27.41
2022-08-25T15:40:35.201Z,27.41
2022-08-25T15:43:01.682Z,27.41
2022-08-25T15:45:29.482Z,27.39
2022-08-25T15:47:57.287Z,27.41
2022-08-25T15:50:26.087Z,27.39
2022-08-25T15:52:52.813Z,27.38
2022-08-25T15:55:19.953Z,27.38
2022-08-25T15:57:47.759Z,27.37
2022-08-25T16:00:17.973Z,27.39
2022-08-25T16:02:45.500Z,27.36
2022-08-25T16:05:13.662Z,27.39
2022-08-25T16:07:42.592Z,27.35
2022-08-25T16:10:09.659Z,27.35
2022-08-25T16:12:37.943Z,27.34
2022-08-25T16:15:04.990Z,27.31
2022-08-25T16:17:32.037Z,27.31
2022-08-25T16:19:58.562Z,27.31
2022-08-25T16:22:25.442Z,27.30
2022-08-25T16:24:52.509Z,27.29
2022-08-25T16:27:19.852Z,27.28
2022-08-25T16:29:47.212Z,27.30
2022-08-25T16:32:14.821Z,27.33
2022-08-25T16:34:44.215Z,27.36
2022-08-25T16:37:11.499Z,27.33
2022-08-25T16:39:41.304Z,27.32
2022-08-25T16:42:07.817Z,27.31
2022-08-25T16:44:34.445Z,27.32
2022-08-25T16:47:01.388Z,27.31
2022-08-25T16:49:27.898Z,27.30
2022-08-25T16:51:56.996Z,27.26
2022-08-25T16:54:51.335Z,27.27
2022-08-25T16:57:17.722Z,27.23
2022-08-25T16:59:44.490Z,27.24
2022-08-25T17:02:12.012Z,27.23
2022-08-25T17:04:38.501Z,27.26
2022-08-25T17:07:05.126Z,27.23
2022-08-25T17:09:31.538Z,27.25
2022-08-25T17:11:58.050Z,27.27
2022-08-25T17:14:25.502Z,27.22
2022-08-25T17:16:55.022Z,27.21
2022-08-25T17:19:23.602Z,27.15
2022-08-25T17:21:50.927Z,27.14
2022-08-25T17:24:17.683Z,27.10
2022-08-25T17:26:47.178Z,27.08
2022-08-25T17:29:13.694Z,27.07
2022-08-25T17:31:40.561Z,27.07
2022-08-25T17:34:10.463Z,27.04
2022-08-25T17:36:37.195Z,27.02
2022-08-25T17:39:04.345Z,26.99
2022-08-25T17:41:31.799Z,26.94
2022-08-25T17:43:58.712Z,26.92
2022-08-25T17:46:25.350Z,26.89
2022-08-25T17:48:52.635Z,26.89
2022-08-25T17:51:19.951Z,26.86
2022-08-25T17:53:48.779Z,26.82
2022-08-25T17:56:17.653Z,26.75
2022-08-25T17:58:45.310Z,26.71
2022-08-25T18:01:24.169Z,26.65
2022-08-25T18:03:51.342Z,26.62
2022-08-25T18:06:19.368Z,26.57
2022-08-25T18:08:51.253Z,26.50
2022-08-25T18:11:19.674Z,26.42
2022-08-25T18:13:46.731Z,26.33
2022-08-25T18:16:13.315Z,26.25
2022-08-25T18:18:40.585Z,26.17
2022-08-25T18:21:16.431Z,26.10
2022-08-25T18:23:43.570Z,26.05
2022-08-25T18:26:12.952Z,25.98
2022-08-25T18:28:40.033Z,25.96
2022-08-25T18:31:08.427Z,25.91
2022-08-25T18:33:35.830Z,25.85
2022-08-25T18:36:02.428Z,25.79
2022-08-25T18:38:47.666Z,25.69
2022-08-25T18:41:14.365Z,25.58
2022-08-25T18:43:40.778Z,25.46
2022-08-25T18:46:08.186Z,25.46
2022-08-25T18:48:34.922Z,25.37
2022-08-25T18:51:02.046Z,25.36
2022-08-25T18:53:37.204Z,25.34
2022-08-25T18:56:16.081Z,25.33
2022-08-25T18:58:42.488Z,25.26
2022-08-25T19:01:13.601Z,25.23
2022-08-25T19:03:40.073Z,25.22
2022-08-25T19:06:06.778Z,25.16
2022-08-25T19:08:33.203Z,25.07
2022-08-25T19:10:59.588Z,25.04
2022-08-25T19:13:26.117Z,24.99
2022-08-25T19:15:52.769Z,24.93
2022-08-25T19:18:26.160Z,24.95
2022-08-25T19:20:55.929Z,24.85
2022-08-25T19:23:22.357Z,24.86
2022-08-25T19:25:48.807Z,24.79
2022-08-25T19:28:16.703Z,24.74
2022-08-25T19:30:49.838Z,24.69
2022-08-25T19:33:42.117Z,24.67
2022-08-25T19:36:08.665Z,24.56
2022-08-25T19:38:36.091Z,24.51
2022-08-25T19:41:14.285Z,24.42
2022-08-25T19:43:55.713Z,24.35
2022-08-25T19:46:32.800Z,24.12
2022-08-25T19:49:06.823Z,24.02
2022-08-25T19:51:36.746Z,24.11
2022-08-25T19:54:04.073Z,24.10
2022-08-25T19:56:32.420Z,24.08
2022-08-25T19:58:59.653Z,24.06
2022-08-25T20:01:26.138Z,24.05
2022-08-25T20:03:52.625Z,24.03
2022-08-25T20:06:19.470Z,23.98
2022-08-25T20:08:45.926Z,23.90
2022-08-25T20:11:12.381Z,23.88
2022-08-25T20:13:38.740Z,23.80
2022-08-25T20:16:05.601Z,23.74
2022-08-25T20:18:32.647Z,23.78
2022-08-25T20:21:00.351Z,23.72
2022-08-25T20:23:46.053Z,23.73
2022-08-25T20:26:12.466Z,23.71
2022-08-25T20:28:42.148Z,23.65
2022-08-25T20:31:09.103Z,23.60
2022-08-25T20:33:35.956Z,23.53
2022-08-25T20:36:04.603Z,23.46
2022-08-25T20:38:31.926Z,23.41
2022-08-25T20:41:01.205Z,23.44
2022-08-25T20:43:30.573Z,23.37
2022-08-25T20:46:04.954Z,23.39
2022-08-25T20:48:32.148Z,23.31
2022-08-25T20:50:58.618Z,23.26
2022-08-25T20:53:25.641Z,23.27
2022-08-25T20:55:52.133Z,23.23
2022-08-25T20:58:18.768Z,23.18
2022-08-25T21:00:45.786Z,23.13
2022-08-25T21:03:12.289Z,23.10
2022-08-25T21:05:40.402Z,23.00
2022-08-25T21:08:08.065Z,23.01
2022-08-25T21:10:34.810Z,22.95
2022-08-25T21:13:01.270Z,22.92
2022-08-25T21:15:28.306Z,22.87
2022-08-25T21:17:55.358Z,22.87
2022-08-25T21:20:26.232Z,22.90
2022-08-25T21:22:53.238Z,22.83
2022-08-25T21:25:20.192Z,22.76
2022-08-25T21:27:48.046Z,22.65
2022-08-25T21:30:15.989Z,22.67
2022-08-25T21:32:53.685Z,22.62
2022-08-25T21:35:22.490Z,22.61
2022-08-25T21:37:53.048Z,22.57
2022-08-25T21:40:21.106Z,22.56
2022-08-25T21:42:48.647Z,22.54
2022-08-25T21:45:15.343Z,22.50
2022-08-25T21:47:42.446Z,22.53
2022-08-25T21:50:10.623Z,22.39
2022-08-25T21:52:37.095Z,22.42
2022-08-25T21:55:04.402Z,22.39
2022-08-25T21:57:32.132Z,22.37
2022-08-25T22:00:06.188Z,22.33
2022-08-25T22:02:38.581Z,22.19
2022-08-25T22:05:09.292Z,22.10
2022-08-25T22:07:40.422Z,22.11
2022-08-25T22:10:09.496Z,22.08
2022-08-25T22:12:43.649Z,22.07
2022-08-25T22:15:13.690Z,22.03
2022-08-25T22:17:40.480Z,21.98
2022-08-25T22:20:08.800Z,21.92
2022-08-25T22:22:35.950Z,21.87
2022-08-25T22:25:02.560Z,21.82
2022-08-25T22:27:30.277Z,21.84
2022-08-25T22:29:56.918Z,21.81
2022-08-25T22:32:23.408Z,21.80
2022-08-25T22:34:50.349Z,21.74
2022-08-25T22:37:17.886Z,21.71
2022-08-25T22:39:45.685Z,21.73
2022-08-25T22:42:12.450Z,21.69
2022-08-25T22:44:39.887Z,21.65
2022-08-25T22:47:06.886Z,21.68
2022-08-25T22:49:35.320Z,21.67
2022-08-25T22:52:02.394Z,21.63
2022-08-25T22:54:29.825Z,21.59
2022-08-25T22:56:56.406Z,21.57
2022-08-25T22:59:23.090Z,21.49
2022-08-25T23:01:52.286Z,21.53
2022-08-25T23:04:19.163Z,21.52
2022-08-25T23:06:46.366Z,21.52
2022-08-25T23:09:13.894Z,21.41
2022-08-25T23:11:40.791Z,21.33
2022-08-25T23:14:10.780Z,21.33
2022-08-25T23:16:39.159Z,21.33
2022-08-25T23:19:05.791Z,21.10
2022-08-25T23:21:52.542Z,21.11
2022-08-25T23:24:27.103Z,21.04
2022-08-25T23:27:01.937Z,20.74
2022-08-25T23:29:29.789Z,20.88
2022-08-25T23:31:57.956Z,20.99
2022-08-25T23:34:25.411Z,20.93
2022-08-25T23:36:52.138Z,20.87
2022-08-25T23:39:18.613Z,20.89
2022-08-25T23:41:48.801Z,20.82
2022-08-25T23:44:17.307Z,20.78
2022-08-25T23:46:45.273Z,20.93
2022-08-25T23:49:14.216Z,20.92
2022-08-25T23:51:44.782Z,20.91
2022-08-25T23:54:12.115Z,20.78
2022-08-25T23:56:44.551Z,20.86
2022-08-25T23:59:20.045Z,20.81
